• Join FlightAware (Why Join?)
  • Login
  • US Flag 
07:18PM EST


 

Airport Tracker/Info


-or-


 

Live Flight TrackerFlight Track Log ✈ RPA3357 ✈ 13-May-2013 ✈ KATL - KPHL

Flight Track Log - Related Links

Times and Time Zones

All times are in EDT time to prevent confusion due to time zone crossing. See the RPA3357 flight status page for this flight to view local times or setup timezone preferences in your user account.

Time Position Orientation Groundspeed Altitude Reporting Facility
EDT Latitude Longitude Course Direction KTS MPH feet Rate Location/Type
02:51PM 33.6333 -84.4667 53° Northeast 146 168 2,800  Level Atlanta TRACON
02:52PM 33.6000 -84.5333 239° Southwest 233 268 4,800 2,400 Climbing Atlanta TRACON
02:53PM 33.8460 -84.1568 73° East  Level Estimated
02:53PM 33.5500 -84.5833 220° Southwest 297 342 7,600  Level Atlanta TRACON
02:54PM 33.9156 -84.0661 54° Northeast  Level Estimated
02:54PM 33.4833 -84.5667 168° South 322 371 10,200  Level Atlanta TRACON
02:55PM 33.8948 -83.9452 102° East  Level FlightAware Approximate
02:56PM 33.9649 -83.8551 48° Northeast  Level Estimated
02:56PM 33.4556 -84.3675 99° East 348 400 14,000  Level Atlanta Center
02:57PM 34.0350 -83.7648 53° Northeast  Level Estimated
02:57PM 33.4894 -84.2581 70° East 355 409 15,800  Level Atlanta Center
02:58PM 33.5603 -84.2083 30° Northeast 312 359 17,800 1,800 Climbing Atlanta Center
02:59PM 33.6503 -84.1536 27° Northeast 333 383 19,400 1,740 Climbing Atlanta Center
03:00PM 33.7378 -84.0814 34° Northeast 364 419 21,300 1,860 Climbing Atlanta Center
03:01PM 33.8006 -83.9664 57° Northeast 385 443 23,200 1,860 Climbing Atlanta Center
03:02PM 33.8608 -83.8486 58° Northeast 411 473 25,100 1,680 Climbing Atlanta Center
03:03PM 33.9253 -83.7283 57° Northeast 411 473 26,600 1,500 Climbing Atlanta Center
03:04PM 33.9917 -83.6153 55° Northeast 410 472 28,200 1,200 Climbing Atlanta Center
03:05PM 34.0644 -83.5022 52° Northeast 410 472 29,000 960 Climbing Atlanta Center
03:06PM 34.1369 -83.3886 52° Northeast 415 478 30,200 1,260 Climbing Atlanta Center
03:07PM 34.2072 -83.2778 53° Northeast 415 478 31,600 1,140 Climbing Atlanta Center
03:08PM 34.2836 -83.1539 53° Northeast 415 478 32,500 660 Climbing Atlanta Center
03:09PM 34.3558 -83.0397 53° Northeast 415 478 33,000 240 Climbing Atlanta Center
03:10PM 34.4236 -82.9258 54° Northeast 415 478 33,000  Level Atlanta Center
03:11PM 34.4914 -82.8164 53° Northeast 415 478 33,000  Level Atlanta Center
03:12PM 34.5633 -82.7019 53° Northeast 415 478 33,000  Level Atlanta Center
03:13PM 34.6308 -82.5897 54° Northeast 415 478 33,000  Level Atlanta Center
03:14PM 34.6922 -82.4878 54° Northeast 410 472 33,000  Level Atlanta Center
03:15PM 34.7619 -82.3775 52° Northeast 410 472 33,000  Level Atlanta Center
03:16PM 34.8311 -82.2675 53° Northeast 417 480 33,000  Level Atlanta Center
03:17PM 34.8983 -82.1572 53° Northeast 417 480 33,000  Level Atlanta Center
03:18PM 34.9736 -82.0286 54° Northeast 422 486 33,000  Level Atlanta Center
03:19PM 35.0425 -81.9103 55° Northeast 417 480 33,000  Level Atlanta Center
03:20PM 35.1094 -81.7917 55° Northeast 417 480 33,000  Level Atlanta Center
03:21PM 35.1717 -81.6708 58° Northeast 423 487 33,000  Level Atlanta Center
03:22PM 35.2361 -81.5467 58° Northeast 423 487 33,000  Level Atlanta Center
03:23PM 35.3003 -81.4228 58° Northeast 423 487 33,000  Level Atlanta Center
03:24PM 35.3644 -81.3011 57° Northeast 423 487 33,000  Level Atlanta Center
03:25PM 35.4283 -81.1739 58° Northeast 423 487 33,000  Level Atlanta Center
03:26PM 35.4961 -81.0467 57° Northeast 430 495 33,000  Level Atlanta Center
03:28PM 35.5706 -80.9012 58° Northeast  Level FlightAware Approximate
03:28PM 35.6294 -80.7914 58° Northeast 440 506 33,000  Level Atlanta Center
03:29PM 35.6967 -80.6608 58° Northeast 440 506 33,000  Level Atlanta Center
03:30PM 35.7639 -80.5275 58° Northeast 445 512 33,000  Level Atlanta Center
03:32PM 35.9044 -80.2539 58° Northeast 445 512 33,000  Level Washington Center
03:33PM 35.9703 -80.1194 59° Northeast 445 512 33,000  Level Washington Center
03:34PM 36.0331 -80.0022 56° Northeast 445 512 33,000  Level Washington Center
03:35PM 36.1067 -79.8725 55° Northeast 445 512 33,000  Level Washington Center
03:36PM 36.1822 -79.7378 55° Northeast 457 526 33,000  Level Washington Center
03:37PM 36.2744 -79.6036 50° Northeast 462 532 33,000  Level Washington Center
03:38PM 36.3511 -79.4964 48° Northeast 467 537 33,000  Level Washington Center
03:39PM 36.4406 -79.3744 48° Northeast 475 547 33,000  Level Washington Center
03:40PM 36.5258 -79.2519 49° Northeast 469 540 33,000  Level Washington Center
03:41PM 36.6150 -79.1294 48° Northeast 469 540 33,000  Level Washington Center
03:42PM 36.7128 -78.9914 49° Northeast 478 550 33,000  Level Washington Center
03:43PM 36.8019 -78.8681 48° Northeast 478 550 33,000  Level Washington Center
03:44PM 36.8908 -78.7419 49° Northeast 478 550 33,000  Level Washington Center
03:45PM 36.9708 -78.6283 49° Northeast 478 550 33,000  Level Washington Center
03:46PM 37.0594 -78.5042 48° Northeast 478 550 33,000  Level Washington Center
03:47PM 37.1481 -78.3772 49° Northeast 478 550 33,000  Level Washington Center
03:48PM 37.2386 -78.2503 48° Northeast 478 550 33,000  Level Washington Center
03:49PM 37.3247 -78.1225 50° Northeast 478 550 33,000  Level Washington Center
03:50PM 37.4131 -77.9947 49° Northeast 478 550 33,000  Level Washington Center
03:51PM 37.5031 -77.8642 49° Northeast 478 550 33,000  Level Washington Center
03:52PM 37.6072 -77.7572 39° Northeast 478 550 33,000 -180 Level Washington Center
03:53PM 37.7175 -77.6553 36° Northeast 478 550 32,700 -1,020 Descending Washington Center
03:54PM 37.8256 -77.5583 35° Northeast 483 556 31,000 -900 Descending Washington Center
03:55PM 37.9336 -77.4583 36° Northeast 483 556 31,000  Level Washington Center
03:56PM 38.0519 -77.3558 34° Northeast 483 556 31,000  Level Washington Center
03:57PM 38.1617 -77.2528 36° Northeast 478 550 31,000  Level Washington Center
03:58PM 38.2589 -77.1597 37° Northeast 487 560 31,000  Level Washington Center
03:59PM 38.3792 -77.0511 35° Northeast 487 560 31,000 -1,140 Level Washington Center
04:00PM 38.4886 -76.9497 36° Northeast 481 554 28,700 -2,460 Descending Washington Center
04:01PM 38.5961 -76.8508 36° Northeast 481 554 26,200 -2,400 Descending Washington Center
04:02PM 38.6931 -76.7461 40° Northeast 476 548 24,000 -1,380 Descending Washington Center
04:03PM 38.7361 -76.5950 70° East 434 499 23,500 -1,440 Descending Washington Center
04:04PM 38.7664 -76.4436 76° East 434 499 21,200 -2,280 Descending Washington Center
04:05PM 38.7967 -76.2975 75° East 429 494 19,000 1,380 Descending Washington Center
04:06PM 38.8244 -76.1644 75° East 415 478 24,000 -2,040 Climbing Washington Center
04:07PM 38.8542 -76.0314 74° East 404 465 15,000 -4,680 Descending Washington Center
04:08PM 38.8794 -75.9008 76° East 393 452 14,900 -60 Descending Washington Center
04:09PM 38.9403 -75.7944 54° Northeast 369 425 14,900 -60 Level Washington Center
04:10PM 39.0258 -75.7119 37° Northeast 360 414 14,800 -1,380 Descending Washington Center
04:13PM 39.2500 -75.6500 12° North 300 345 10,400 -1,740 Descending Philadelphia TRACON
04:14PM 39.3333 -75.6167 17° North 286 329 9,100 -1,440 Descending Philadelphia TRACON
04:15PM 39.3833 -75.5500 46° Northeast 298 343 7,500 -1,080 Descending Philadelphia TRACON
04:16PM 39.4167 -75.4500 67° East 286 329 7,000 -300 Descending Philadelphia TRACON
04:17PM 39.4500 -75.3667 63° Northeast 286 329 7,000  Level Philadelphia TRACON
04:18PM 39.5000 -75.2667 57° Northeast 282 325 7,000  Level Philadelphia TRACON
04:19PM 39.5500 -75.2000 46° Northeast 285 328 7,000  Level Philadelphia TRACON
04:20PM 39.6000 -75.1333 46° Northeast 283 326 7,000  Level Philadelphia TRACON
04:21PM 39.6667 -75.0833 30° Northeast 273 314 7,000 -60 Level Philadelphia TRACON
04:22PM 39.7333 -75.0833 360° North 240 276 6,900 -480 Descending Philadelphia TRACON
04:23PM 39.8000 -75.0833 360° North 195 224 6,100 -960 Descending Philadelphia TRACON
04:24PM 39.8167 -75.0167 72° East 220 253 5,100 -1,140 Descending Philadelphia TRACON
04:25PM 39.8333 -74.9333 75° East 213 245 4,000 -540 Descending Philadelphia TRACON
04:26PM 39.8833 -74.9167 14° North 184 212 4,000 -480 Level Philadelphia TRACON
04:27PM 39.9000 -74.9667 293° West 176 203 3,100 -900 Descending Philadelphia TRACON
04:28PM 39.9167 -75.0167 294° West 154 177 2,300 -600 Descending Philadelphia TRACON
04:29PM 39.9000 -75.0667 247° West 163 188 2,000 -360 Descending Philadelphia TRACON
04:30PM 39.9000 -75.1167 270° West 152 175 1,600 -600 Descending Philadelphia TRACON
04:31PM 39.8833 -75.1667 247° West 133 153 900 -720 Descending Philadelphia TRACON